createdAt,value
2022-08-02T00:00:47.198Z,49.52
2022-08-02T00:01:46.565Z,49.42
2022-08-02T00:02:46.770Z,49.52
2022-08-02T00:03:47.020Z,49.52
2022-08-02T00:04:47.251Z,49.52
2022-08-02T00:05:53.480Z,49.52
2022-08-02T00:06:48.744Z,49.52
2022-08-02T00:07:48.104Z,49.52
2022-08-02T00:08:48.341Z,49.52
2022-08-02T00:09:48.593Z,49.52
2022-08-02T00:10:48.848Z,49.52
2022-08-02T00:11:49.084Z,49.52
2022-08-02T00:12:49.339Z,49.52
2022-08-02T00:13:49.565Z,49.52
2022-08-02T00:14:49.813Z,49.52
2022-08-02T00:15:50.056Z,49.52
2022-08-02T00:16:50.305Z,49.52
2022-08-02T00:17:50.555Z,49.52
2022-08-02T00:18:50.803Z,49.52
2022-08-02T00:19:51.045Z,49.52
2022-08-02T00:20:51.286Z,49.52
2022-08-02T00:21:51.527Z,49.52
2022-08-02T00:22:51.767Z,49.52
2022-08-02T00:24:27.588Z,49.52
2022-08-02T00:24:53.256Z,49.62
2022-08-02T00:25:55.503Z,49.62
2022-08-02T00:26:52.878Z,49.62
2022-08-02T00:27:53.119Z,49.62
2022-08-02T00:28:53.349Z,49.62
2022-08-02T00:29:53.661Z,49.62
2022-08-02T00:30:53.915Z,49.62
2022-08-02T00:31:54.152Z,49.62
2022-08-02T00:32:54.398Z,49.62
2022-08-02T00:34:26.655Z,49.62
2022-08-02T00:34:55.861Z,49.62
2022-08-02T00:35:55.170Z,49.62
2022-08-02T00:36:55.412Z,49.62
2022-08-02T00:37:55.662Z,49.62
2022-08-02T00:38:55.911Z,49.62
2022-08-02T00:39:56.155Z,49.62
2022-08-02T00:40:58.165Z,49.62
2022-08-02T00:41:56.737Z,49.62
2022-08-02T00:42:56.974Z,49.62
2022-08-02T00:43:57.216Z,49.62
2022-08-02T00:44:57.463Z,49.62
2022-08-02T00:46:02.326Z,49.62
2022-08-02T00:46:58.937Z,49.71
2022-08-02T00:47:58.247Z,49.71
2022-08-02T00:48:58.526Z,49.71
2022-08-02T00:49:58.768Z,49.71
2022-08-02T00:50:59.086Z,49.71
2022-08-02T00:51:59.289Z,49.71
2022-08-02T00:52:59.529Z,49.71
2022-08-02T00:53:59.776Z,49.71
2022-08-02T00:55:00.016Z,49.71
2022-08-02T00:56:00.259Z,49.71
2022-08-02T00:57:00.498Z,49.71
2022-08-02T00:58:00.750Z,49.71
2022-08-02T00:59:01.010Z,49.71
2022-08-02T01:00:01.261Z,49.71
2022-08-02T01:01:01.518Z,49.71
2022-08-02T01:02:01.815Z,49.71
2022-08-02T01:03:02.071Z,49.71
2022-08-02T01:04:02.311Z,49.81
2022-08-02T01:05:02.552Z,49.81
2022-08-02T01:06:18.217Z,49.71
2022-08-02T01:07:12.037Z,49.81
2022-08-02T01:08:04.313Z,49.81
2022-08-02T01:09:03.622Z,49.81
2022-08-02T01:10:03.872Z,49.81
2022-08-02T01:11:04.114Z,49.81
2022-08-02T01:12:04.354Z,49.81
2022-08-02T01:13:04.604Z,49.81
2022-08-02T01:14:04.846Z,49.81
2022-08-02T01:15:05.091Z,49.81
2022-08-02T01:16:05.394Z,49.81
2022-08-02T01:17:05.637Z,49.81
2022-08-02T01:18:05.877Z,49.81
2022-08-02T01:19:06.126Z,49.81
2022-08-02T01:20:07.346Z,49.81
2022-08-02T01:21:06.660Z,49.81
2022-08-02T01:22:06.925Z,49.81
2022-08-02T01:23:07.177Z,49.81
2022-08-02T01:24:07.428Z,49.81
2022-08-02T01:25:07.730Z,49.81
2022-08-02T01:26:07.976Z,49.81
2022-08-02T01:27:08.219Z,49.81
2022-08-02T01:28:08.459Z,49.81
2022-08-02T01:29:08.699Z,49.91
2022-08-02T01:30:08.951Z,49.91
2022-08-02T01:31:09.199Z,49.91
2022-08-02T01:32:09.755Z,49.91
2022-08-02T01:33:09.781Z,49.91
2022-08-02T01:34:10.032Z,49.91
2022-08-02T01:35:10.271Z,49.91
2022-08-02T01:36:10.540Z,49.91
2022-08-02T01:37:10.769Z,49.91
2022-08-02T01:38:11.014Z,49.91
2022-08-02T01:39:11.265Z,49.91
2022-08-02T01:40:12.496Z,49.91
2022-08-02T01:41:11.795Z,49.91
2022-08-02T01:42:12.391Z,49.91
2022-08-02T01:43:12.433Z,49.91
2022-08-02T01:44:12.675Z,49.91
2022-08-02T01:45:12.916Z,49.91
2022-08-02T01:46:13.156Z,50.01
2022-08-02T01:47:13.406Z,50.01
2022-08-02T01:48:13.646Z,50.01
2022-08-02T01:49:13.919Z,50.01
2022-08-02T01:50:14.179Z,50.01
2022-08-02T01:51:14.457Z,50.01
2022-08-02T01:52:14.707Z,50.01
2022-08-02T01:53:14.957Z,50.01
2022-08-02T01:54:15.251Z,50.01
2022-08-02T01:55:18.477Z,50.01
2022-08-02T01:56:15.719Z,50.01
2022-08-02T01:57:15.981Z,50.01
2022-08-02T01:58:16.219Z,50.01
2022-08-02T01:59:16.470Z,50.01
2022-08-02T02:00:16.729Z,50.01
2022-08-02T02:01:18.632Z,50.01
2022-08-02T02:02:17.329Z,50.01
2022-08-02T02:03:17.558Z,50.01
2022-08-02T02:04:17.792Z,50.11
2022-08-02T02:05:18.041Z,50.01
2022-08-02T02:06:18.283Z,50.01
2022-08-02T02:07:18.541Z,50.01
2022-08-02T02:08:27.393Z,50.01
2022-08-02T02:09:20.011Z,50.01
2022-08-02T02:10:19.312Z,50.01
2022-08-02T02:12:14.112Z,50.01
2022-08-02T02:12:21.277Z,50.01
2022-08-02T02:13:20.097Z,50.11
2022-08-02T02:14:20.365Z,50.01
2022-08-02T02:15:20.637Z,50.11
2022-08-02T02:16:20.963Z,50.11
2022-08-02T02:18:10.795Z,50.11
2022-08-02T02:18:22.437Z,50.13
2022-08-02T02:19:22.580Z,50.01
2022-08-02T02:20:21.977Z,50.11
2022-08-02T02:21:22.237Z,50.11
2022-08-02T02:22:22.477Z,50.11
2022-08-02T02:23:24.408Z,50.11
2022-08-02T02:24:23.021Z,50.11
2022-08-02T02:25:36.358Z,50.11
2022-08-02T02:26:29.663Z,50.11
2022-08-02T02:27:24.783Z,50.11
2022-08-02T02:28:24.083Z,50.11
2022-08-02T02:29:24.320Z,50.11
2022-08-02T02:30:24.560Z,50.11
2022-08-02T02:31:24.811Z,50.11
2022-08-02T02:32:25.048Z,50.11
2022-08-02T02:33:29.366Z,50.13
2022-08-02T02:34:25.563Z,50.13
2022-08-02T02:35:25.803Z,50.13
2022-08-02T02:36:26.053Z,50.13
2022-08-02T02:37:26.303Z,50.13
2022-08-02T02:38:26.556Z,50.13
2022-08-02T02:39:26.802Z,50.13
2022-08-02T02:40:27.035Z,50.13
2022-08-02T02:41:27.292Z,50.13
2022-08-02T02:42:27.625Z,50.13
2022-08-02T02:43:27.866Z,50.13
2022-08-02T02:44:28.106Z,50.13
2022-08-02T02:45:28.356Z,50.13
2022-08-02T02:46:28.616Z,50.13
2022-08-02T02:47:40.253Z,50.11
2022-08-02T02:48:30.088Z,50.23
2022-08-02T02:49:29.519Z,50.13
2022-08-02T02:50:29.690Z,50.23
2022-08-02T02:51:29.940Z,50.23
2022-08-02T02:52:30.179Z,50.23
2022-08-02T02:53:30.428Z,50.23
2022-08-02T02:54:34.889Z,50.23
2022-08-02T02:55:31.000Z,50.23
2022-08-02T02:56:31.259Z,50.23
2022-08-02T02:57:31.503Z,50.23
2022-08-02T02:58:31.748Z,50.23
2022-08-02T02:59:31.991Z,50.23
2022-08-02T03:00:32.232Z,50.23
2022-08-02T03:01:56.309Z,50.23
2022-08-02T03:02:33.722Z,50.23
2022-08-02T03:03:33.022Z,50.23
2022-08-02T03:04:36.059Z,50.23
2022-08-02T03:05:34.493Z,50.23
2022-08-02T03:06:33.803Z,50.23
2022-08-02T03:07:34.043Z,50.23
2022-08-02T03:08:34.288Z,50.23
2022-08-02T03:09:34.544Z,50.23
2022-08-02T03:10:34.782Z,50.23
2022-08-02T03:11:35.044Z,50.23
2022-08-02T03:12:35.285Z,50.23
2022-08-02T03:13:37.509Z,50.23
2022-08-02T03:14:35.865Z,50.23
2022-08-02T03:15:36.114Z,50.23
2022-08-02T03:16:36.360Z,50.23
2022-08-02T03:17:36.607Z,50.23
2022-08-02T03:18:36.846Z,50.23
2022-08-02T03:19:37.097Z,50.23
2022-08-02T03:20:37.340Z,50.23
2022-08-02T03:21:37.656Z,50.23
2022-08-02T03:22:37.885Z,50.23
2022-08-02T03:23:38.129Z,50.23
2022-08-02T03:24:38.380Z,50.34
2022-08-02T03:25:38.620Z,50.34
2022-08-02T03:26:38.860Z,50.34
2022-08-02T03:27:39.119Z,50.34
2022-08-02T03:28:39.371Z,50.34
2022-08-02T03:29:39.613Z,50.34
2022-08-02T03:30:39.901Z,50.34
2022-08-02T03:31:40.152Z,50.34
2022-08-02T03:32:40.384Z,50.34
2022-08-02T03:33:40.642Z,50.34
2022-08-02T03:34:40.882Z,50.34
2022-08-02T03:35:41.231Z,50.34
2022-08-02T03:36:41.437Z,50.34
2022-08-02T03:37:41.705Z,50.34
2022-08-02T03:38:41.966Z,50.34
2022-08-02T03:39:51.834Z,50.34
2022-08-02T03:40:43.437Z,50.34
2022-08-02T03:41:42.736Z,50.34
2022-08-02T03:42:42.976Z,50.34
2022-08-02T03:43:43.226Z,50.34
2022-08-02T03:44:43.476Z,50.34
2022-08-02T03:45:43.718Z,50.34
2022-08-02T03:46:43.957Z,50.34
2022-08-02T03:47:44.208Z,50.34
2022-08-02T03:48:44.457Z,50.34
2022-08-02T03:49:44.697Z,50.34
2022-08-02T03:50:44.948Z,50.34
2022-08-02T03:51:45.209Z,50.34
2022-08-02T03:52:45.451Z,50.43
2022-08-02T03:53:45.690Z,50.43
2022-08-02T03:54:46.140Z,50.43
2022-08-02T03:55:46.210Z,50.43
2022-08-02T03:56:46.481Z,50.43
2022-08-02T03:57:46.711Z,50.43
2022-08-02T03:58:49.327Z,50.43
2022-08-02T03:59:47.223Z,50.43
2022-08-02T04:00:47.505Z,50.43
2022-08-02T04:01:47.775Z,50.43
2022-08-02T04:02:48.003Z,50.43
2022-08-02T04:03:48.251Z,50.43
2022-08-02T04:04:48.496Z,50.43
2022-08-02T04:06:04.583Z,50.43
2022-08-02T04:06:49.965Z,50.43
2022-08-02T04:08:33.062Z,50.43
2022-08-02T04:08:50.495Z,50.43
2022-08-02T04:09:49.806Z,50.43
2022-08-02T04:10:50.045Z,50.43
2022-08-02T04:11:50.303Z,50.43
2022-08-02T04:12:50.537Z,50.43
2022-08-02T04:13:50.786Z,50.43
2022-08-02T04:14:51.027Z,50.43
2022-08-02T04:15:51.277Z,50.53
2022-08-02T04:16:51.517Z,50.43
2022-08-02T04:17:51.758Z,50.53
2022-08-02T04:18:52.008Z,50.53
2022-08-02T04:19:52.250Z,50.43
2022-08-02T04:20:52.500Z,50.53
2022-08-02T04:21:52.785Z,50.53
2022-08-02T04:22:53.009Z,50.53
2022-08-02T04:23:53.254Z,50.53
2022-08-02T04:24:53.499Z,50.53
2022-08-02T04:25:53.731Z,50.53
2022-08-02T04:26:54.023Z,50.53
2022-08-02T04:28:16.061Z,50.53
2022-08-02T04:28:55.500Z,50.53
2022-08-02T04:29:54.805Z,50.53
2022-08-02T04:30:55.054Z,50.53
2022-08-02T04:31:55.293Z,50.53
2022-08-02T04:32:55.544Z,50.53
2022-08-02T04:33:55.784Z,50.53
2022-08-02T04:35:18.849Z,50.53
2022-08-02T04:35:59.724Z,50.53
2022-08-02T04:36:56.506Z,50.53
2022-08-02T04:38:09.541Z,50.53
2022-08-02T04:38:57.976Z,50.63
2022-08-02T04:39:57.284Z,50.53
2022-08-02T04:40:57.524Z,50.53
2022-08-02T04:41:58.099Z,50.63
2022-08-02T04:42:58.007Z,50.63
2022-08-02T04:43:58.260Z,50.63
2022-08-02T04:44:58.507Z,50.63
2022-08-02T04:45:58.749Z,50.63
2022-08-02T04:47:00.285Z,50.63
2022-08-02T04:48:04.923Z,50.63
2022-08-02T04:49:00.577Z,50.63
2022-08-02T04:49:59.779Z,50.63
2022-08-02T04:51:00.028Z,50.63
2022-08-02T04:52:00.271Z,50.63
2022-08-02T04:53:00.526Z,50.63
2022-08-02T04:54:03.655Z,50.63
2022-08-02T04:55:02.018Z,50.63
2022-08-02T04:56:01.293Z,50.63
2022-08-02T04:57:01.544Z,50.63
2022-08-02T04:58:06.777Z,50.63
2022-08-02T04:59:03.012Z,50.63
2022-08-02T05:00:02.310Z,50.63
2022-08-02T05:01:02.595Z,50.63
2022-08-02T05:02:02.925Z,50.73
2022-08-02T05:03:03.171Z,50.63
2022-08-02T05:04:03.409Z,50.63
2022-08-02T05:05:07.020Z,50.63
2022-08-02T05:06:07.664Z,50.63
2022-08-02T05:07:05.186Z,50.73
2022-08-02T05:08:04.485Z,50.83
2022-08-02T05:09:04.733Z,50.93
2022-08-02T05:10:04.978Z,50.93
2022-08-02T05:11:05.228Z,51.03
2022-08-02T05:12:05.520Z,51.03
2022-08-02T05:13:05.768Z,51.12
2022-08-02T05:14:06.018Z,51.23
2022-08-02T05:15:06.248Z,51.23
2022-08-02T05:16:06.567Z,51.32
2022-08-02T05:17:06.810Z,51.62
2022-08-02T05:18:07.050Z,51.62
2022-08-02T05:19:07.298Z,51.72
2022-08-02T05:20:07.550Z,51.82
2022-08-02T05:21:07.800Z,51.92
2022-08-02T05:22:08.187Z,51.92
2022-08-02T05:23:08.356Z,52.12
2022-08-02T05:24:08.615Z,52.12
2022-08-02T05:25:08.860Z,52.12
2022-08-02T05:26:09.111Z,52.22
2022-08-02T05:27:16.924Z,52.31
2022-08-02T05:28:11.715Z,52.31
2022-08-02T05:29:09.905Z,52.31
2022-08-02T05:30:10.151Z,52.22
2022-08-02T05:31:13.205Z,52.31
2022-08-02T05:32:11.049Z,52.34
2022-08-02T05:33:10.914Z,52.31
2022-08-02T05:34:12.176Z,52.31
2022-08-02T05:35:11.484Z,52.44
2022-08-02T05:36:11.765Z,52.34
2022-08-02T05:37:12.016Z,52.34
2022-08-02T05:38:12.287Z,52.44
2022-08-02T05:39:18.910Z,52.44
2022-08-02T05:40:13.776Z,52.44
2022-08-02T05:41:13.007Z,52.54
2022-08-02T05:42:13.669Z,52.54
2022-08-02T05:43:13.587Z,52.54
2022-08-02T05:44:13.848Z,52.54
2022-08-02T05:45:14.106Z,52.64
2022-08-02T05:46:14.366Z,52.64
2022-08-02T05:47:14.630Z,52.64
2022-08-02T05:48:14.880Z,52.64
2022-08-02T05:49:15.255Z,52.64
2022-08-02T05:50:15.391Z,52.64
2022-08-02T05:51:15.680Z,52.64
2022-08-02T05:52:15.942Z,52.64
2022-08-02T05:53:16.203Z,52.64
2022-08-02T05:54:16.462Z,52.64
2022-08-02T05:55:16.731Z,52.64
2022-08-02T05:56:16.985Z,52.73
2022-08-02T05:57:17.284Z,52.64
2022-08-02T05:58:17.543Z,52.64
2022-08-02T05:59:17.795Z,52.73
2022-08-02T06:00:18.052Z,53.13
2022-08-02T06:01:18.328Z,53.23
2022-08-02T06:02:20.303Z,53.33
2022-08-02T06:03:18.907Z,53.63
2022-08-02T06:04:19.265Z,53.83
2022-08-02T06:05:19.480Z,54.25
2022-08-02T06:06:19.736Z,54.25
2022-08-02T06:07:20.005Z,54.25
2022-08-02T06:08:20.262Z,54.55
2022-08-02T06:09:25.222Z,54.55
2022-08-02T06:10:21.757Z,54.77
2022-08-02T06:11:21.078Z,54.97
2022-08-02T06:12:21.336Z,55.17
2022-08-02T06:13:21.589Z,55.36
2022-08-02T06:14:21.849Z,55.79
2022-08-02T06:15:22.110Z,55.89
2022-08-02T06:16:31.697Z,55.99
2022-08-02T06:17:23.618Z,56.09
2022-08-02T06:18:28.012Z,56.21
2022-08-02T06:19:24.169Z,56.21
2022-08-02T06:20:23.480Z,56.32
2022-08-02T06:22:32.981Z,56.41
2022-08-02T06:22:33.028Z,56.41
2022-08-02T06:23:25.270Z,56.41
2022-08-02T06:24:24.593Z,56.32
2022-08-02T06:25:48.491Z,56.12
2022-08-02T06:26:26.082Z,56.14
2022-08-02T06:27:25.404Z,56.34
2022-08-02T06:28:25.663Z,56.34
2022-08-02T06:29:25.914Z,56.34
2022-08-02T06:30:26.313Z,56.14
2022-08-02T06:31:26.435Z,56.24
2022-08-02T06:32:26.702Z,56.24
2022-08-02T06:33:26.963Z,56.44
2022-08-02T06:34:27.224Z,56.34
2022-08-02T06:35:27.475Z,56.34
2022-08-02T06:36:27.765Z,56.34
2022-08-02T06:37:28.026Z,56.44
2022-08-02T06:38:28.286Z,56.44
2022-08-02T06:39:28.537Z,56.24
2022-08-02T06:40:28.798Z,56.14
2022-08-02T06:41:29.088Z,56.14
2022-08-02T06:42:29.379Z,56.04
2022-08-02T06:43:29.700Z,56.04
2022-08-02T06:44:49.634Z,56.07
2022-08-02T06:45:31.170Z,56.17
2022-08-02T06:47:10.286Z,56.27
2022-08-02T06:47:31.732Z,56.27
2022-08-02T06:48:31.051Z,56.17
2022-08-02T06:49:52.570Z,56.17
2022-08-02T06:50:32.550Z,56.27
2022-08-02T06:51:31.870Z,56.37
2022-08-02T06:52:32.615Z,56.49
2022-08-02T06:53:32.423Z,56.49
2022-08-02T06:54:32.681Z,56.49
2022-08-02T06:55:32.934Z,56.40
2022-08-02T06:56:34.172Z,56.20
2022-08-02T06:57:33.490Z,56.10
2022-08-02T06:58:33.743Z,56.20
2022-08-02T06:59:34.014Z,56.20
2022-08-02T07:00:34.276Z,56.20
2022-08-02T07:01:38.598Z,56.30
2022-08-02T07:02:34.816Z,56.20
2022-08-02T07:03:35.066Z,56.10
2022-08-02T07:04:35.336Z,56.00
2022-08-02T07:05:35.608Z,56.00
2022-08-02T07:06:35.856Z,56.00
2022-08-02T07:07:36.117Z,56.10
2022-08-02T07:08:36.377Z,55.90
2022-08-02T07:09:36.646Z,56.00
2022-08-02T07:10:36.908Z,55.50
2022-08-02T07:11:37.159Z,55.10
2022-08-02T07:12:37.430Z,55.03
2022-08-02T07:13:39.893Z,55.03
2022-08-02T07:14:37.989Z,55.13
2022-08-02T07:15:38.251Z,54.93
2022-08-02T07:16:38.512Z,54.83
2022-08-02T07:17:38.770Z,55.03
2022-08-02T07:18:39.031Z,55.23
2022-08-02T07:19:39.292Z,55.53
2022-08-02T07:20:39.593Z,56.12
2022-08-02T07:21:57.487Z,56.52
2022-08-02T07:22:41.102Z,56.62
2022-08-02T07:23:40.432Z,56.82
2022-08-02T07:24:40.703Z,57.39
2022-08-02T07:26:03.554Z,57.49
2022-08-02T07:27:01.771Z,57.79
2022-08-02T07:27:42.525Z,57.79
2022-08-02T07:28:41.864Z,57.99
2022-08-02T07:29:46.818Z,58.09
2022-08-02T07:30:43.403Z,57.99
2022-08-02T07:31:42.745Z,57.79
2022-08-02T07:32:43.024Z,57.79
2022-08-02T07:33:46.807Z,57.79
2022-08-02T07:34:50.286Z,57.79
2022-08-02T07:35:44.817Z,57.89
2022-08-02T07:36:44.134Z,57.56
2022-08-02T07:37:55.078Z,57.06
2022-08-02T07:38:45.720Z,57.06
2022-08-02T07:39:44.948Z,57.06
2022-08-02T07:40:45.268Z,56.96
2022-08-02T07:41:45.535Z,56.87
2022-08-02T07:42:45.825Z,56.87
2022-08-02T07:43:46.089Z,56.77
2022-08-02T07:44:49.199Z,56.74
2022-08-02T07:45:46.590Z,56.94
2022-08-02T07:46:47.858Z,56.94
2022-08-02T07:47:47.082Z,56.84
2022-08-02T07:48:47.354Z,56.64
2022-08-02T07:49:47.621Z,56.44
2022-08-02T07:50:47.902Z,56.34
2022-08-02T07:51:48.171Z,56.12
2022-08-02T07:52:48.452Z,56.02
2022-08-02T07:53:50.697Z,55.52
2022-08-02T07:54:49.071Z,55.12
2022-08-02T07:55:49.347Z,55.02
2022-08-02T07:56:50.852Z,55.02
2022-08-02T07:57:50.864Z,54.93
2022-08-02T07:58:50.202Z,55.12
2022-08-02T07:59:50.474Z,55.22
2022-08-02T08:00:51.695Z,55.12
2022-08-02T08:01:51.049Z,55.00
2022-08-02T08:02:52.126Z,54.90
2022-08-02T08:03:51.576Z,54.60
2022-08-02T08:04:51.856Z,54.40
2022-08-02T08:05:52.129Z,54.30
2022-08-02T08:06:52.399Z,54.10
2022-08-02T08:07:52.678Z,54.10
2022-08-02T08:08:52.954Z,54.21
2022-08-02T08:09:56.262Z,53.80
2022-08-02T08:10:53.529Z,53.91
2022-08-02T08:11:53.789Z,53.88
2022-08-02T08:12:54.070Z,53.88
2022-08-02T08:13:54.347Z,53.68
2022-08-02T08:14:54.619Z,53.38
2022-08-02T08:15:54.887Z,53.08
2022-08-02T08:16:55.158Z,52.89
2022-08-02T08:17:55.441Z,52.79
2022-08-02T08:18:55.721Z,52.69
2022-08-02T08:19:55.991Z,52.59
2022-08-02T08:20:56.272Z,52.59
2022-08-02T08:21:56.532Z,52.37
2022-08-02T08:22:56.814Z,52.37
2022-08-02T08:23:57.083Z,51.97
2022-08-02T08:24:57.362Z,51.57
2022-08-02T08:25:57.634Z,51.47
2022-08-02T08:26:57.935Z,51.47
2022-08-02T08:27:58.211Z,51.37
2022-08-02T08:28:58.491Z,51.18
2022-08-02T08:29:58.762Z,51.37
2022-08-02T08:30:59.036Z,51.28
2022-08-02T08:31:59.305Z,51.28
2022-08-02T08:32:59.585Z,51.05
2022-08-02T08:33:59.863Z,50.95
2022-08-02T08:35:00.186Z,50.65
2022-08-02T08:36:02.586Z,50.65
2022-08-02T08:37:00.727Z,50.76
2022-08-02T08:38:05.501Z,50.36
2022-08-02T08:39:02.258Z,50.16
2022-08-02T08:40:01.577Z,50.16
2022-08-02T08:41:01.851Z,50.26
2022-08-02T08:42:02.128Z,50.46
2022-08-02T08:43:02.416Z,50.46
2022-08-02T08:44:02.681Z,50.36
2022-08-02T08:45:02.960Z,49.74
2022-08-02T08:46:03.220Z,49.64
2022-08-02T08:47:03.490Z,49.94
2022-08-02T08:48:03.820Z,50.13
2022-08-02T08:49:04.187Z,50.04
2022-08-02T08:50:04.410Z,49.64
2022-08-02T08:51:04.682Z,49.34
2022-08-02T08:52:04.953Z,49.42
2022-08-02T08:53:05.232Z,49.32
2022-08-02T08:54:05.560Z,49.22
2022-08-02T08:55:05.832Z,49.12
2022-08-02T08:56:06.103Z,49.12
2022-08-02T08:57:06.382Z,49.12
2022-08-02T08:58:06.661Z,49.12
2022-08-02T08:59:06.925Z,48.92
2022-08-02T09:00:07.206Z,49.10
2022-08-02T09:01:07.510Z,49.19
2022-08-02T09:02:17.874Z,48.90
2022-08-02T09:03:09.044Z,48.40
2022-08-02T09:04:08.376Z,47.91
2022-08-02T09:05:08.647Z,47.91
2022-08-02T09:06:08.916Z,47.71
2022-08-02T09:07:09.187Z,47.91
2022-08-02T09:08:12.367Z,47.81
2022-08-02T09:09:10.758Z,48.11
2022-08-02T09:10:10.089Z,47.91
2022-08-02T09:11:10.359Z,48.01
2022-08-02T09:12:11.017Z,47.91
2022-08-02T09:13:39.066Z,47.91
2022-08-02T09:14:12.217Z,48.01
2022-08-02T09:15:15.865Z,47.91
2022-08-02T09:16:14.093Z,48.01
2022-08-02T09:17:12.231Z,48.11
2022-08-02T09:18:12.523Z,48.01
2022-08-02T09:19:12.781Z,47.91
2022-08-02T09:20:13.070Z,47.81
2022-08-02T09:21:13.331Z,47.71
2022-08-02T09:22:14.091Z,47.71
2022-08-02T09:23:13.832Z,47.81
2022-08-02T09:24:14.102Z,47.89
2022-08-02T09:25:14.373Z,47.89
2022-08-02T09:26:14.651Z,47.59
2022-08-02T09:27:14.933Z,47.49
2022-08-02T09:28:15.223Z,47.19
2022-08-02T09:29:15.474Z,46.89
2022-08-02T09:30:15.767Z,46.20
2022-08-02T09:31:16.037Z,46.01
2022-08-02T09:32:16.314Z,46.01
2022-08-02T09:33:16.585Z,46.20
2022-08-02T09:34:19.678Z,46.50
2022-08-02T09:35:17.135Z,46.70
2022-08-02T09:36:17.406Z,46.80
2022-08-02T09:37:17.676Z,46.89
2022-08-02T09:38:17.958Z,47.00
2022-08-02T09:39:18.227Z,47.00
2022-08-02T09:40:18.520Z,46.60
2022-08-02T09:41:18.789Z,46.58
2022-08-02T09:42:19.067Z,46.67
2022-08-02T09:43:19.339Z,46.67
2022-08-02T09:44:19.616Z,46.78
2022-08-02T09:45:19.876Z,46.88
2022-08-02T09:46:24.034Z,47.56
2022-08-02T09:47:20.387Z,47.27
2022-08-02T09:48:20.665Z,46.78
2022-08-02T09:49:20.965Z,46.97
2022-08-02T09:50:21.213Z,47.66
2022-08-02T09:51:21.482Z,47.86
2022-08-02T09:52:21.760Z,47.47
2022-08-02T09:53:23.011Z,46.88
2022-08-02T09:54:22.349Z,46.78
2022-08-02T09:55:22.623Z,46.67
2022-08-02T09:56:35.056Z,47.66
2022-08-02T09:57:24.141Z,47.77
2022-08-02T09:58:23.468Z,47.17
2022-08-02T09:59:23.734Z,47.37
2022-08-02T10:00:43.503Z,47.37
2022-08-02T10:01:34.178Z,47.07
2022-08-02T10:02:25.611Z,47.17
2022-08-02T10:03:26.730Z,46.88
2022-08-02T10:04:26.066Z,46.67
2022-08-02T10:05:25.417Z,46.36
2022-08-02T10:06:25.722Z,46.36
2022-08-02T10:07:25.987Z,46.16
2022-08-02T10:08:26.296Z,46.06
2022-08-02T10:09:26.557Z,46.26
2022-08-02T10:10:26.837Z,46.36
2022-08-02T10:11:27.108Z,46.18
2022-08-02T10:12:27.390Z,46.48
2022-08-02T10:13:27.659Z,46.48
2022-08-02T10:14:27.941Z,46.58
2022-08-02T10:15:28.197Z,46.58
2022-08-02T10:16:28.497Z,46.28
2022-08-02T10:17:28.780Z,46.28
2022-08-02T10:18:44.313Z,46.28
2022-08-02T10:20:00.121Z,46.38
2022-08-02T10:20:30.570Z,46.67
2022-08-02T10:21:29.883Z,46.67
2022-08-02T10:22:30.141Z,47.15
2022-08-02T10:23:32.432Z,47.66
2022-08-02T10:24:30.746Z,47.47
2022-08-02T10:25:31.002Z,47.05
2022-08-02T10:26:31.270Z,46.95
2022-08-02T10:27:48.897Z,46.66
2022-08-02T10:28:32.762Z,46.66
2022-08-02T10:29:53.770Z,46.66
2022-08-02T10:30:33.324Z,46.66
2022-08-02T10:31:32.642Z,46.75
2022-08-02T10:32:32.903Z,47.15
2022-08-02T10:33:33.164Z,46.95
2022-08-02T10:34:33.424Z,46.85
2022-08-02T10:35:33.714Z,46.55
2022-08-02T10:36:33.982Z,46.66
2022-08-02T10:37:34.256Z,46.95
2022-08-02T10:38:34.576Z,46.95
2022-08-02T10:39:34.836Z,46.85
2022-08-02T10:40:35.097Z,46.55
2022-08-02T10:41:35.354Z,46.45
2022-08-02T10:42:35.617Z,46.36
2022-08-02T10:43:35.883Z,46.16
2022-08-02T10:44:36.127Z,46.36
2022-08-02T10:45:36.398Z,46.26
2022-08-02T10:46:36.658Z,46.45
2022-08-02T10:47:36.908Z,46.55
2022-08-02T10:48:37.169Z,46.75
2022-08-02T10:49:39.584Z,46.95
2022-08-02T10:50:37.739Z,46.85
2022-08-02T10:51:38.501Z,46.85
2022-08-02T10:52:38.341Z,46.55
2022-08-02T10:53:38.601Z,46.75
2022-08-02T10:54:38.872Z,46.75
2022-08-02T10:55:39.148Z,46.66
2022-08-02T10:56:39.402Z,46.55
2022-08-02T10:57:39.661Z,46.55
2022-08-02T10:58:39.943Z,46.45
2022-08-02T10:59:40.202Z,46.45
2022-08-02T11:00:40.499Z,46.36
2022-08-02T11:01:40.803Z,46.36
2022-08-02T11:02:41.067Z,46.26
2022-08-02T11:03:41.357Z,46.26
2022-08-02T11:04:41.598Z,46.26
2022-08-02T11:05:42.588Z,46.26
2022-08-02T11:06:42.186Z,46.36
2022-08-02T11:07:42.445Z,46.45
2022-08-02T11:08:43.685Z,46.36
2022-08-02T11:09:43.006Z,46.45
2022-08-02T11:10:43.266Z,46.45
2022-08-02T11:11:54.495Z,46.36
2022-08-02T11:12:44.777Z,46.36
2022-08-02T11:13:44.164Z,46.26
2022-08-02T11:14:44.417Z,46.36
2022-08-02T11:15:44.669Z,46.36
2022-08-02T11:16:44.928Z,46.36
2022-08-02T11:17:45.178Z,46.26
2022-08-02T11:18:45.459Z,46.26
2022-08-02T11:19:45.730Z,46.36
2022-08-02T11:20:45.987Z,46.36
2022-08-02T11:21:47.924Z,46.45
2022-08-02T11:22:46.575Z,46.36
2022-08-02T11:23:46.830Z,46.36
2022-08-02T11:24:47.195Z,46.36
2022-08-02T11:26:11.090Z,46.06
2022-08-02T11:26:48.669Z,45.96
2022-08-02T11:27:47.984Z,45.86
2022-08-02T11:28:48.232Z,45.76
2022-08-02T11:29:48.491Z,45.76
2022-08-02T11:30:48.769Z,45.86
2022-08-02T11:31:49.053Z,46.06
2022-08-02T11:32:49.314Z,46.45
2022-08-02T11:33:49.566Z,45.96
2022-08-02T11:34:49.828Z,46.06
2022-08-02T11:35:50.085Z,46.06
2022-08-02T11:36:50.335Z,45.96
2022-08-02T11:37:50.595Z,46.06
2022-08-02T11:38:50.885Z,46.16
2022-08-02T11:39:51.146Z,46.26
2022-08-02T11:40:53.911Z,46.36
2022-08-02T11:41:52.659Z,46.45
2022-08-02T11:42:51.885Z,46.36
2022-08-02T11:43:52.147Z,46.36
2022-08-02T11:44:52.398Z,46.26
2022-08-02T11:45:52.674Z,46.26
2022-08-02T11:46:52.918Z,46.36
2022-08-02T11:47:54.179Z,46.16
2022-08-02T11:48:53.519Z,46.16
2022-08-02T11:49:53.757Z,46.16
2022-08-02T11:50:54.011Z,46.16
2022-08-02T11:51:54.501Z,46.16
2022-08-02T11:52:54.590Z,45.76
2022-08-02T11:53:54.888Z,45.86
2022-08-02T11:54:55.141Z,45.76
2022-08-02T11:55:55.402Z,45.86
2022-08-02T11:56:55.659Z,45.67
2022-08-02T11:58:03.637Z,45.67
2022-08-02T11:58:57.164Z,45.67
2022-08-02T11:59:56.477Z,45.57
2022-08-02T12:00:56.750Z,45.67
2022-08-02T12:01:57.054Z,45.76
2022-08-02T12:02:57.408Z,45.86
2022-08-02T12:03:57.644Z,45.86
2022-08-02T12:04:58.733Z,45.96
2022-08-02T12:06:05.848Z,45.96
2022-08-02T12:06:59.547Z,46.06
2022-08-02T12:07:58.855Z,46.16
2022-08-02T12:08:59.116Z,46.06
2022-08-02T12:09:59.425Z,46.08
2022-08-02T12:10:59.685Z,45.96
2022-08-02T12:11:59.939Z,45.98
2022-08-02T12:13:00.205Z,45.98
2022-08-02T12:14:00.459Z,45.98
2022-08-02T12:15:00.718Z,45.98
2022-08-02T12:16:00.988Z,45.79
2022-08-02T12:17:01.248Z,45.68
2022-08-02T12:18:01.509Z,45.89
2022-08-02T12:19:01.778Z,45.89
2022-08-02T12:20:02.029Z,46.38
2022-08-02T12:21:02.299Z,46.38
2022-08-02T12:22:02.551Z,46.18
2022-08-02T12:23:02.818Z,46.08
2022-08-02T12:24:03.070Z,46.08
2022-08-02T12:25:03.351Z,46.08
2022-08-02T12:26:03.601Z,46.18
2022-08-02T12:27:03.871Z,46.48
2022-08-02T12:28:04.142Z,46.38
2022-08-02T12:29:04.401Z,46.48
2022-08-02T12:30:04.732Z,46.78
2022-08-02T12:31:05.009Z,46.88
2022-08-02T12:32:05.253Z,47.07
2022-08-02T12:33:05.514Z,47.17
2022-08-02T12:34:06.764Z,47.17
2022-08-02T12:35:06.084Z,47.17
2022-08-02T12:36:06.344Z,46.97
2022-08-02T12:37:06.605Z,46.88
2022-08-02T12:38:06.855Z,46.78
2022-08-02T12:39:07.116Z,46.88
2022-08-02T12:40:07.376Z,46.97
2022-08-02T12:41:30.349Z,47.07
2022-08-02T12:42:08.885Z,47.07
2022-08-02T12:43:08.198Z,47.07
2022-08-02T12:44:08.468Z,47.07
2022-08-02T12:45:08.736Z,46.97
2022-08-02T12:46:08.989Z,46.97
2022-08-02T12:47:09.248Z,46.78
2022-08-02T12:48:09.511Z,46.58
2022-08-02T12:49:17.847Z,46.48
2022-08-02T12:50:11.010Z,46.58
2022-08-02T12:51:10.839Z,46.58
2022-08-02T12:52:10.660Z,46.58
2022-08-02T12:53:10.929Z,46.58
2022-08-02T12:54:11.240Z,46.48
2022-08-02T12:55:11.511Z,46.28
2022-08-02T12:56:11.840Z,45.98